Time;durP1;ratioP1;P1;durP2;ratioP2;P2;SDS_P1;SDS_P2;PMS_P1;PMS_P2;Temp;Humidity;BMP_temperature;BMP_pressure;BME280_temperature;BME280_humidity;BME280_pressure;Samples;Min_cycle;Max_cycle;Signal;HPM_P1;HPM_P2
2022/09/09 00:02:55;;;;;;;3.40;1.48;;;;;;;15.52;100.00;99945.69;21089906;28;20494;-82
2022/09/09 00:12:56;;;;;;;5.32;1.50;;;;;;;15.58;100.00;99930.44;21087818;28;20048;-81
2022/09/09 00:22:59;;;;;;;3.35;1.10;;;;;;;15.63;100.00;99943.44;21067991;28;20055;-81
2022/09/09 00:33:00;;;;;;;5.35;1.33;;;;;;;15.65;100.00;99926.63;21083874;28;20044;-81
2022/09/09 00:43:01;;;;;;;3.05;1.17;;;;;;;15.65;100.00;99937.19;21083901;28;20044;-81
2022/09/09 00:53:03;;;;;;;4.35;1.75;;;;;;;15.77;100.00;99940.22;21081650;28;20048;-81
2022/09/09 01:03:04;;;;;;;7.25;1.75;;;;;;;15.76;100.00;99946.41;21062946;28;20124;-80
2022/09/09 01:13:06;;;;;;;8.55;1.83;;;;;;;15.82;100.00;99949.66;21080013;28;20055;-82
2022/09/09 01:23:07;;;;;;;6.28;1.75;;;;;;;15.83;100.00;99958.44;21087685;28;20051;-80
2022/09/09 01:33:08;;;;;;;6.47;1.50;;;;;;;15.85;100.00;99953.94;21088709;28;20500;-82
2022/09/09 01:43:10;;;;;;;6.97;1.85;;;;;;;15.82;100.00;99948.81;21074607;28;20552;-81
2022/09/09 01:53:11;;;;;;;8.63;1.40;;;;;;;15.94;100.00;99937.69;21081670;28;20048;-82
2022/09/09 02:03:13;;;;;;;4.68;1.17;;;;;;;15.83;100.00;99930.25;21101531;28;20044;-80
2022/09/09 02:13:14;;;;;;;4.63;1.10;;;;;;;15.74;100.00;99940.34;21082359;28;20055;-80
2022/09/09 02:23:15;;;;;;;6.30;1.20;;;;;;;15.62;100.00;99947.88;21080055;28;20052;-81
2022/09/09 02:33:17;;;;;;;4.03;1.00;;;;;;;15.54;100.00;99946.47;21081086;28;20047;-81
2022/09/09 02:43:18;;;;;;;6.22;1.13;;;;;;;15.53;100.00;99921.88;21060059;28;20052;-80
2022/09/09 02:53:20;;;;;;;4.78;1.20;;;;;;;15.47;100.00;99911.56;21079043;28;20515;-81
2022/09/09 03:03:22;;;;;;;5.65;1.05;;;;;;;15.50;100.00;99921.16;21060059;28;20141;-81
2022/09/09 03:13:23;;;;;;;4.43;0.95;;;;;;;15.39;100.00;99933.03;21061054;28;20082;-81
2022/09/09 03:23:24;;;;;;;2.15;1.00;;;;;;;15.45;100.00;99931.91;21077378;28;20102;-81
2022/09/09 03:33:26;;;;;;;5.47;0.90;;;;;;;15.48;100.00;99938.84;21076742;28;20063;-81
2022/09/09 03:43:27;;;;;;;3.58;0.93;;;;;;;15.52;100.00;99933.38;21059039;28;20450;-80
2022/09/09 03:53:29;;;;;;;3.78;0.70;;;;;;;15.52;100.00;99925.44;21053487;28;20059;-81
2022/09/09 04:03:30;;;;;;;3.22;1.00;;;;;;;15.53;100.00;99936.84;21052738;28;20082;-81
2022/09/09 04:13:31;;;;;;;3.60;1.40;;;;;;;15.50;100.00;99944.91;21051444;28;20097;-81
2022/09/09 04:23:33;;;;;;;5.90;1.10;;;;;;;15.40;100.00;99957.63;21092471;28;20067;-81
2022/09/09 04:33:35;;;;;;;3.17;0.95;;;;;;;15.30;100.00;99956.31;21075427;28;20496;-80
2022/09/09 04:43:40;;;;;;;2.28;0.90;;;;;;;15.41;100.00;99959.34;21083274;28;20142;-81
2022/09/09 04:53:42;;;;;;;3.60;1.30;;;;;;;15.28;100.00;99966.03;21082106;28;20070;-80
2022/09/09 05:03:45;;;;;;;4.80;1.05;;;;;;;15.30;100.00;99966.84;21065318;28;20098;-81
2022/09/09 05:13:46;;;;;;;4.85;1.17;;;;;;;15.31;100.00;99977.34;21081990;28;20485;-80
2022/09/09 05:23:47;;;;;;;3.58;1.20;;;;;;;15.29;100.00;99975.69;21084221;28;20044;-81
2022/09/09 05:33:49;;;;;;;2.38;1.10;;;;;;;15.43;100.00;99983.88;21066042;28;20044;-81
2022/09/09 05:43:50;;;;;;;4.90;1.52;;;;;;;15.53;100.00;99990.50;21062564;28;20055;-81
2022/09/09 05:53:52;;;;;;;5.38;1.20;;;;;;;15.58;100.00;100006.97;21059321;28;20089;-81
2022/09/09 06:03:53;;;;;;;6.22;1.33;;;;;;;15.70;100.00;100005.63;21074695;28;20048;-81
2022/09/09 06:13:54;;;;;;;4.53;1.25;;;;;;;16.00;100.00;100016.66;21096599;28;20052;-81
2022/09/09 06:23:56;;;;;;;3.20;1.10;;;;;;;16.21;100.00;100014.81;21078864;28;20101;-80
2022/09/09 06:34:01;;;;;;;4.75;1.52;;;;;;;16.51;100.00;100011.69;21099193;28;20047;-80
2022/09/09 06:44:03;;;;;;;4.38;1.10;;;;;;;16.50;100.00;100015.28;21106793;28;20044;-82
2022/09/09 06:54:06;;;;;;;3.47;1.10;;;;;;;16.70;100.00;99995.84;21103888;28;20496;-80
2022/09/09 07:04:08;;;;;;;4.72;0.80;;;;;;;16.98;100.00;100003.34;21060538;28;20462;-82
2022/09/09 07:14:13;;;;;;;5.03;1.00;;;;;;;17.16;100.00;100005.09;21078206;28;20051;-81
2022/09/09 07:24:15;;;;;;;4.60;1.10;;;;;;;17.34;100.00;100011.25;21079627;28;20123;-81
2022/09/09 07:34:16;;;;;;;8.20;1.10;;;;;;;17.45;100.00;100011.59;21061340;28;20066;-81
2022/09/09 07:44:18;;;;;;;6.05;1.05;;;;;;;17.69;100.00;100022.72;21065005;28;20070;-82
2022/09/09 07:54:23;;;;;;;6.07;1.25;;;;;;;17.91;100.00;100025.13;21065131;28;20052;-81
2022/09/09 08:04:25;;;;;;;4.25;1.10;;;;;;;17.90;100.00;100045.47;21072375;28;20036;-81
2022/09/09 08:24:49;;;;;;;8.63;1.95;;;;;;;17.56;100.00;100045.44;21094774;28;20044;-82
2022/09/09 08:34:51;;;;;;;5.57;1.73;;;;;;;17.91;100.00;100039.22;21082014;28;20090;-81
2022/09/09 08:44:54;;;;;;;11.25;2.00;;;;;;;17.95;100.00;100047.88;21102791;28;20404;-82
2022/09/09 08:54:56;;;;;;;6.40;1.80;;;;;;;18.38;100.00;100045.63;21110784;28;20459;-82
2022/09/09 09:04:58;;;;;;;6.95;1.20;;;;;;;18.90;100.00;100053.44;21099451;28;20036;-82
2022/09/09 09:15:00;;;;;;;7.53;1.40;;;;;;;19.07;100.00;100050.69;21122764;28;20051;-81
2022/09/09 09:25:01;;;;;;;6.05;1.10;;;;;;;19.64;100.00;100061.59;21081051;28;20078;-81
2022/09/09 09:35:04;;;;;;;12.45;1.67;;;;;;;18.76;100.00;100056.84;21076985;28;20075;-82
2022/09/09 09:45:05;;;;;;;8.43;1.50;;;;;;;18.40;100.00;100054.38;21073428;28;20044;-80
2022/09/09 09:55:07;;;;;;;6.25;1.65;;;;;;;18.99;100.00;100058.22;21064398;28;20109;-82
2022/09/09 10:05:08;;;;;;;7.13;1.45;;;;;;;19.28;100.00;100053.91;21087880;28;20048;-82
2022/09/09 10:15:10;;;;;;;5.65;1.40;;;;;;;19.13;100.00;100060.97;21067900;28;20481;-81
2022/09/09 10:25:12;;;;;;;5.93;1.60;;;;;;;18.78;100.00;100048.78;21060341;28;20470;-81
2022/09/09 10:35:14;;;;;;;8.45;2.22;;;;;;;18.90;100.00;100032.19;21058778;28;20407;-81
2022/09/09 10:45:16;;;;;;;9.80;1.27;;;;;;;19.43;100.00;100020.31;21075767;28;20067;-81
2022/09/09 10:55:18;;;;;;;7.30;1.60;;;;;;;19.93;100.00;100024.44;21078374;28;20047;-82
2022/09/09 11:05:19;;;;;;;9.75;1.75;;;;;;;19.83;100.00;100015.31;21077070;28;20077;-81
2022/09/09 11:15:22;;;;;;;5.40;1.35;;;;;;;20.63;100.00;99998.84;21056578;28;20779;-81
2022/09/09 11:25:24;;;;;;;5.03;1.15;;;;;;;21.47;91.49;99989.84;21078077;28;20044;-82
2022/09/09 11:35:26;;;;;;;3.63;0.80;;;;;;;21.70;86.53;99977.59;21114912;28;20043;-82
2022/09/09 11:45:29;;;;;;;4.18;1.33;;;;;;;21.33;84.08;99965.94;21112340;28;20653;-82
2022/09/09 11:55:33;;;;;;;8.15;1.40;;;;;;;21.18;84.73;99976.63;21100793;28;20531;-81
2022/09/09 12:05:36;;;;;;;5.17;0.80;;;;;;;20.43;87.27;99996.56;21091815;28;20048;-81
2022/09/09 12:15:37;;;;;;;7.38;1.20;;;;;;;18.74;100.00;100032.22;21075898;28;20302;-79
2022/09/09 12:25:39;;;;;;;4.75;1.15;;;;;;;18.74;100.00;99980.97;21092741;28;20048;-81
2022/09/09 12:35:40;;;;;;;7.57;1.20;;;;;;;19.11;100.00;99993.81;21090849;28;20044;-81
2022/09/09 12:45:42;;;;;;;7.28;1.27;;;;;;;19.11;100.00;100008.91;21071277;28;20051;-81
2022/09/09 12:55:43;;;;;;;9.32;1.70;;;;;;;17.28;100.00;100043.31;21075832;28;20132;-81
2022/09/09 13:05:46;;;;;;;7.75;0.80;;;;;;;16.59;100.00;100014.84;21077994;28;20059;-80
2022/09/09 13:15:48;;;;;;;4.43;0.70;;;;;;;17.60;100.00;99994.91;21086088;28;20055;-81
2022/09/09 13:25:49;;;;;;;6.88;1.30;;;;;;;18.50;100.00;99970.75;21088030;28;20048;-80
2022/09/09 13:35:51;;;;;;;6.00;0.82;;;;;;;18.17;100.00;99955.75;21067550;28;20044;-79
2022/09/09 13:45:53;;;;;;;3.95;0.93;;;;;;;18.40;100.00;99951.00;21106040;28;20608;-79
2022/09/09 13:55:56;;;;;;;6.37;1.10;;;;;;;18.57;100.00;99958.84;21105540;28;20048;-79
2022/09/09 14:05:58;;;;;;;3.55;1.27;;;;;;;19.06;100.00;99956.09;21135417;28;20044;-79
2022/09/09 14:16:02;;;;;;;5.22;1.13;;;;;;;19.38;100.00;99934.78;21112319;28;20108;-79
2022/09/09 14:26:04;;;;;;;5.97;1.13;;;;;;;19.27;100.00;99955.81;21101278;28;20044;-79
2022/09/09 14:36:06;;;;;;;4.25;1.00;;;;;;;19.60;100.00;99948.50;21085697;28;20039;-81
2022/09/09 14:46:09;;;;;;;4.88;1.08;;;;;;;19.95;100.00;99951.66;21105236;28;20044;-79
2022/09/09 14:56:10;;;;;;;7.00;1.52;;;;;;;20.16;100.00;99962.75;21076714;28;20408;-79
2022/09/09 15:06:12;;;;;;;5.68;1.10;;;;;;;20.16;100.00;99962.75;21073404;28;20048;-79
2022/09/09 15:16:13;;;;;;;10.00;1.02;;;;;;;20.27;100.00;99974.56;21062340;28;20044;-78
2022/09/09 15:26:15;;;;;;;4.60;0.68;;;;;;;20.07;100.00;99951.84;21076210;28;20063;-78
2022/09/09 15:36:16;;;;;;;3.22;0.60;;;;;;;19.95;93.73;99946.34;21073782;28;20043;-79
2022/09/09 15:46:17;;;;;;;4.25;0.93;;;;;;;20.13;92.04;99957.66;21072099;28;20048;-79
2022/09/09 15:56:19;;;;;;;3.17;1.00;;;;;;;19.69;92.10;99974.53;21070262;28;20051;-78
2022/09/09 16:06:21;;;;;;;3.78;0.60;;;;;;;19.32;96.93;99990.88;21045559;28;20037;-79
2022/09/09 16:16:22;;;;;;;4.72;1.33;;;;;;;18.99;100.00;99999.00;20977086;28;20555;-80
2022/09/09 16:26:23;;;;;;;3.33;0.45;;;;;;;18.87;100.00;100024.41;21009545;28;20045;-79
2022/09/09 16:36:25;;;;;;;4.88;1.10;;;;;;;18.38;100.00;100041.19;21028407;28;20092;-81
2022/09/09 16:46:27;;;;;;;3.72;0.80;;;;;;;17.83;100.00;100030.84;21039683;28;20044;-79
2022/09/09 16:56:29;;;;;;;2.58;0.80;;;;;;;17.90;100.00;100034.03;21049206;28;20040;-81
2022/09/09 17:06:31;;;;;;;6.10;0.82;;;;;;;17.61;100.00;100025.75;21054439;28;20041;-82
2022/09/09 17:16:33;;;;;;;2.83;0.90;;;;;;;17.33;100.00;100033.34;21110623;28;20420;-80
2022/09/09 17:26:35;;;;;;;2.72;1.00;;;;;;;17.07;100.00;100032.84;21130263;28;20047;-80
2022/09/09 17:36:36;;;;;;;3.63;0.88;;;;;;;16.89;100.00;100044.31;21127810;28;20469;-81
2022/09/09 17:46:40;;;;;;;6.72;1.20;;;;;;;16.66;100.00;100030.34;21126554;28;20284;-80
2022/09/09 17:56:41;;;;;;;3.85;1.30;;;;;;;16.49;100.00;100046.13;21108910;28;20044;-81
2022/09/09 18:06:43;;;;;;;7.65;1.67;;;;;;;16.42;100.00;100050.81;21093134;28;20055;-80
2022/09/09 18:16:44;;;;;;;4.82;1.63;;;;;;;16.24;100.00;100056.97;21021819;28;20048;-78
2022/09/09 18:26:46;;;;;;;6.95;1.73;;;;;;;16.20;100.00;100054.53;21007213;28;20083;-81
2022/09/09 18:36:48;;;;;;;10.40;1.75;;;;;;;16.11;100.00;100061.91;21001517;28;20563;-80
2022/09/09 18:46:51;;;;;;;6.55;1.52;;;;;;;15.70;100.00;100097.13;21019464;28;20394;-79
2022/09/09 18:56:52;;;;;;;12.85;3.60;;;;;;;15.68;100.00;100118.31;21001981;28;20060;-80
2022/09/09 19:06:56;;;;;;;4.57;1.50;;;;;;;15.91;100.00;100130.59;21021704;28;20041;-80
2022/09/09 19:16:59;;;;;;;9.45;1.83;;;;;;;16.08;100.00;100125.44;21088667;28;20124;-79
2022/09/09 19:27:01;;;;;;;5.70;1.40;;;;;;;16.09;100.00;100115.72;21088746;28;20073;-80
2022/09/09 19:37:02;;;;;;;6.65;1.35;;;;;;;16.04;100.00;100096.56;21069077;28;20127;-80
2022/09/09 19:47:03;;;;;;;4.70;1.60;;;;;;;15.95;100.00;100118.94;21063730;28;20067;-79
2022/09/09 19:57:05;;;;;;;6.80;1.50;;;;;;;15.86;100.00;100125.50;21063120;28;20044;-80
2022/09/09 20:07:08;;;;;;;4.10;1.38;;;;;;;15.86;100.00;100124.63;21085562;28;20078;-80
2022/09/09 20:17:11;;;;;;;3.80;1.65;;;;;;;15.83;100.00;100144.09;21020675;28;20044;-80
2022/09/09 20:27:13;;;;;;;6.53;1.73;;;;;;;15.74;100.00;100139.19;21004256;28;20044;-79
2022/09/09 20:37:14;;;;;;;5.10;1.70;;;;;;;15.71;100.00;100136.66;21010204;28;20045;-80
2022/09/09 20:47:16;;;;;;;5.75;1.67;;;;;;;15.64;100.00;100136.06;21004569;28;20090;-80
2022/09/09 20:57:20;;;;;;;4.30;1.50;;;;;;;15.42;100.00;100142.22;21020745;28;20127;-79
2022/09/09 21:07:22;;;;;;;6.43;1.60;;;;;;;15.27;100.00;100141.91;21017196;28;20101;-81
2022/09/09 21:17:23;;;;;;;6.40;1.92;;;;;;;15.39;100.00;100148.50;21014862;28;20405;-80
2022/09/09 21:27:24;;;;;;;9.25;2.45;;;;;;;15.49;100.00;100165.69;20995758;28;20037;-80
2022/09/09 21:37:26;;;;;;;6.57;2.45;;;;;;;15.54;100.00;100137.34;20992497;28;20551;-80
2022/09/09 21:47:27;;;;;;;6.72;2.10;;;;;;;15.40;100.00;100137.88;20993924;28;20486;-78
2022/09/09 21:57:28;;;;;;;5.55;1.40;;;;;;;15.21;100.00;100133.38;20991098;28;20050;-79
2022/09/09 22:07:31;;;;;;;5.20;1.48;;;;;;;15.13;100.00;100149.50;21071712;28;20044;-81
2022/09/09 22:17:32;;;;;;;3.28;0.98;;;;;;;15.04;100.00;100158.66;21082140;28;20109;-80
2022/09/09 22:27:34;;;;;;;3.63;0.98;;;;;;;14.97;100.00;100154.50;21082178;28;20047;-80
2022/09/09 22:37:36;;;;;;;4.00;0.75;;;;;;;14.77;100.00;100152.63;21076392;28;20492;-80
2022/09/09 22:47:41;;;;;;;3.00;0.80;;;;;;;14.70;100.00;100160.78;21061349;28;20056;-81
2022/09/09 22:57:42;;;;;;;2.70;0.68;;;;;;;14.67;100.00;100163.56;21093257;28;20048;-80
2022/09/09 23:07:43;;;;;;;2.38;0.80;;;;;;;14.66;100.00;100167.09;21096728;28;20491;-80
2022/09/09 23:17:45;;;;;;;3.35;0.80;;;;;;;14.68;100.00;100175.81;21063561;28;20040;-79
2022/09/09 23:27:47;;;;;;;2.08;0.82;;;;;;;14.75;100.00;100169.38;21062858;28;20048;-80
2022/09/09 23:37:48;;;;;;;3.75;0.93;;;;;;;14.83;100.00;100177.88;21095684;28;20044;-79
2022/09/09 23:47:50;;;;;;;4.22;0.88;;;;;;;14.79;100.00;100178.91;21095939;28;20051;-80
2022/09/09 23:57:53;;;;;;;2.58;0.90;;;;;;;14.89;100.00;100167.97;21093608;28;20058;-80
